createdAt,value
2022-09-10T00:01:29.346Z,12.00
2022-09-10T00:04:26.943Z,14.40
2022-09-10T00:07:24.287Z,12.40
2022-09-10T00:10:21.354Z,15.00
2022-09-10T00:13:21.751Z,16.40
2022-09-10T00:16:19.389Z,16.20
2022-09-10T00:19:16.818Z,15.80
2022-09-10T00:22:14.567Z,19.20
2022-09-10T00:25:12.283Z,18.60
2022-09-10T00:28:09.496Z,20.20
2022-09-10T00:31:06.396Z,23.00
2022-09-10T00:34:03.551Z,19.40
2022-09-10T00:37:00.529Z,20.80
2022-09-10T00:39:57.603Z,18.00
2022-09-10T00:42:54.957Z,19.20
2022-09-10T00:45:54.716Z,20.20
2022-09-10T00:48:54.269Z,23.00
2022-09-10T00:51:52.950Z,19.60
2022-09-10T00:54:50.554Z,21.60
2022-09-10T00:57:47.813Z,21.80
2022-09-10T01:00:45.890Z,23.20
2022-09-10T01:03:43.884Z,20.00
2022-09-10T01:06:42.169Z,24.20
2022-09-10T01:09:39.763Z,24.25
2022-09-10T01:13:22.845Z,22.80
2022-09-10T01:16:33.264Z,23.40
2022-09-10T01:19:51.899Z,26.40
2022-09-10T01:23:00.574Z,20.60
2022-09-10T01:26:21.706Z,26.80
2022-09-10T01:29:32.610Z,26.60
2022-09-10T01:32:53.782Z,28.40
2022-09-10T01:36:05.652Z,22.80
2022-09-10T01:39:02.689Z,25.60
2022-09-10T01:41:59.365Z,27.00
2022-09-10T01:45:01.167Z,26.20
2022-09-10T01:48:20.012Z,25.20
2022-09-10T01:51:41.370Z,23.20
2022-09-10T01:55:03.346Z,29.80
2022-09-10T01:58:13.347Z,28.20
2022-09-10T02:01:29.419Z,28.00
2022-09-10T02:04:26.580Z,23.40
2022-09-10T02:07:24.236Z,26.80
2022-09-10T02:10:22.796Z,31.80
2022-09-10T02:13:22.330Z,29.40
2022-09-10T02:16:39.830Z,25.60
2022-09-10T02:19:37.490Z,26.60
2022-09-10T02:22:36.486Z,28.80
2022-09-10T02:25:35.254Z,26.80
2022-09-10T02:28:33.941Z,22.80
2022-09-10T02:31:31.897Z,27.60
2022-09-10T02:34:30.736Z,23.60
2022-09-10T02:37:28.493Z,27.60
2022-09-10T02:40:25.671Z,27.00
2022-09-10T02:43:22.631Z,24.40
2022-09-10T02:46:19.692Z,26.40
2022-09-10T02:49:18.115Z,24.60
2022-09-10T02:52:15.620Z,26.20
2022-09-10T02:55:13.261Z,26.60
2022-09-10T02:58:13.572Z,27.00
2022-09-10T03:01:14.537Z,24.00
2022-09-10T03:04:12.255Z,28.80
2022-09-10T03:07:09.746Z,29.20
2022-09-10T03:10:07.818Z,29.80
2022-09-10T03:13:05.554Z,34.00
2022-09-10T03:16:04.308Z,24.60
2022-09-10T03:19:03.507Z,29.80
2022-09-10T03:22:01.449Z,27.80
2022-09-10T03:24:59.293Z,25.00
2022-09-10T03:27:56.530Z,28.60
2022-09-10T03:30:54.596Z,30.80
2022-09-10T03:33:51.569Z,27.40
2022-09-10T03:36:49.413Z,30.80
2022-09-10T03:39:47.519Z,29.20
2022-09-10T03:42:46.509Z,19.20
2022-09-10T03:45:43.732Z,25.80
2022-09-10T03:48:43.367Z,29.20
2022-09-10T03:51:40.429Z,33.60
2022-09-10T03:54:37.560Z,28.20
2022-09-10T03:57:34.629Z,31.20
2022-09-10T04:00:31.535Z,30.40
2022-09-10T04:03:30.714Z,28.60
2022-09-10T04:06:27.987Z,28.40
2022-09-10T04:09:25.537Z,28.20
2022-09-10T04:12:22.622Z,27.00
2022-09-10T04:15:20.942Z,32.00
2022-09-10T04:18:18.454Z,27.20
2022-09-10T04:21:16.468Z,30.00
2022-09-10T04:24:16.734Z,31.00
2022-09-10T04:27:13.865Z,30.80
2022-09-10T04:30:12.172Z,30.60
2022-09-10T04:33:09.635Z,29.60
2022-09-10T04:36:06.980Z,33.20
2022-09-10T04:39:08.875Z,28.00
2022-09-10T04:42:09.853Z,30.40
2022-09-10T04:45:08.021Z,29.60
2022-09-10T04:48:07.265Z,24.80
2022-09-10T04:51:16.107Z,30.40
2022-09-10T04:54:15.674Z,33.00
2022-09-10T04:57:18.708Z,30.60
2022-09-10T05:00:16.937Z,28.80
2022-09-10T05:03:14.883Z,34.40
2022-09-10T05:06:14.849Z,28.00
2022-09-10T05:09:12.187Z,24.80
2022-09-10T05:12:10.653Z,35.00
2022-09-10T05:15:08.467Z,32.00
2022-09-10T05:18:05.397Z,30.80
2022-09-10T05:21:06.192Z,33.40
2022-09-10T05:24:05.936Z,30.20
2022-09-10T05:27:03.774Z,35.60
2022-09-10T05:30:02.151Z,27.20
2022-09-10T05:33:00.864Z,34.40
2022-09-10T05:35:59.484Z,31.60
2022-09-10T05:38:58.291Z,26.60
2022-09-10T05:41:57.320Z,29.20
2022-09-10T05:44:54.637Z,30.80
2022-09-10T05:47:53.025Z,26.80
2022-09-10T05:50:53.587Z,33.60
2022-09-10T05:53:50.914Z,32.60
2022-09-10T05:56:48.994Z,25.60
2022-09-10T05:59:46.915Z,32.60
2022-09-10T06:02:45.351Z,28.20
2022-09-10T06:05:55.765Z,33.80
2022-09-10T06:08:58.834Z,34.60
2022-09-10T06:12:13.676Z,28.60
2022-09-10T06:15:11.641Z,28.80
2022-09-10T06:18:09.389Z,29.80
2022-09-10T06:21:17.723Z,24.60
2022-09-10T06:24:18.412Z,31.80
2022-09-10T06:27:17.082Z,30.80
2022-09-10T06:30:14.503Z,32.80
2022-09-10T06:33:16.932Z,29.80
2022-09-10T06:36:14.748Z,23.80
2022-09-10T06:39:11.737Z,27.00
2022-09-10T06:42:20.837Z,33.60
2022-09-10T06:45:28.284Z,34.80
2022-09-10T06:48:53.755Z,31.40
2022-09-10T06:51:51.197Z,30.80
2022-09-10T06:54:48.786Z,28.00
2022-09-10T06:57:59.810Z,32.20
2022-09-10T07:00:58.593Z,28.80
2022-09-10T07:03:57.063Z,32.80
2022-09-10T07:06:55.168Z,28.60
2022-09-10T07:09:52.518Z,30.60
2022-09-10T07:12:50.220Z,34.40
2022-09-10T07:15:49.759Z,34.60
2022-09-10T07:18:49.416Z,35.00
2022-09-10T07:21:47.772Z,32.60
2022-09-10T07:24:49.314Z,33.00
2022-09-10T07:27:57.656Z,29.00
2022-09-10T07:30:56.530Z,33.00
2022-09-10T07:33:55.497Z,34.60
2022-09-10T07:36:56.761Z,33.20
2022-09-10T07:39:54.845Z,33.40
2022-09-10T07:42:52.487Z,32.00
2022-09-10T07:45:49.862Z,33.40
2022-09-10T07:48:48.743Z,32.00
2022-09-10T07:51:47.043Z,33.20
2022-09-10T07:54:44.922Z,29.20
2022-09-10T07:57:41.881Z,34.60
2022-09-10T08:00:40.740Z,26.80
2022-09-10T08:03:41.087Z,28.40
2022-09-10T08:06:40.850Z,26.60
2022-09-10T08:09:39.119Z,20.20
2022-09-10T08:12:39.886Z,28.40
2022-09-10T08:15:41.670Z,24.00
2022-09-10T08:18:39.112Z,22.40
2022-09-10T08:21:37.142Z,23.60
2022-09-10T08:24:35.746Z,27.40
2022-09-10T08:27:33.824Z,24.40
2022-09-10T08:30:32.863Z,30.60
2022-09-10T08:33:31.712Z,28.00
2022-09-10T08:36:28.830Z,34.20
2022-09-10T08:39:25.729Z,29.80
2022-09-10T08:42:27.915Z,31.40
2022-09-10T08:45:29.323Z,32.20
2022-09-10T08:48:27.574Z,26.80
2022-09-10T08:51:27.540Z,30.00
2022-09-10T08:54:28.118Z,34.00
2022-09-10T08:57:32.812Z,31.80
2022-09-10T09:00:34.249Z,33.20
2022-09-10T09:03:40.684Z,24.80
2022-09-10T09:06:44.601Z,31.80
2022-09-10T09:09:42.796Z,27.00
2022-09-10T09:12:46.542Z,30.00
2022-09-10T09:15:51.872Z,32.60
2022-09-10T09:18:55.097Z,31.60
2022-09-10T09:21:56.491Z,30.60
2022-09-10T09:25:03.255Z,32.80
2022-09-10T09:28:01.112Z,29.60
2022-09-10T09:31:10.644Z,31.40
2022-09-10T09:34:25.975Z,27.00
2022-09-10T09:37:29.469Z,35.00
2022-09-10T09:40:33.722Z,31.20
2022-09-10T09:43:49.535Z,33.20
2022-09-10T09:46:49.401Z,31.20
2022-09-10T09:49:47.191Z,32.60
2022-09-10T09:52:43.917Z,33.40
2022-09-10T09:55:48.859Z,34.60
2022-09-10T09:58:49.916Z,33.40
2022-09-10T10:01:47.036Z,34.80
2022-09-10T10:05:23.341Z,33.60
2022-09-10T10:08:43.533Z,33.00
2022-09-10T10:11:52.234Z,28.00
2022-09-10T10:14:51.398Z,25.80
2022-09-10T10:17:49.658Z,31.40
2022-09-10T10:20:47.001Z,30.20
2022-09-10T10:23:44.447Z,29.40
2022-09-10T10:26:44.146Z,31.80
2022-09-10T10:29:40.740Z,29.80
2022-09-10T10:32:51.164Z,30.00
2022-09-10T10:36:15.377Z,29.20
2022-09-10T10:39:21.934Z,34.00
2022-09-10T10:42:29.572Z,27.00
2022-09-10T10:45:40.466Z,32.20
2022-09-10T10:49:23.149Z,31.20
2022-09-10T10:52:25.950Z,30.40
2022-09-10T10:55:25.219Z,28.60
2022-09-10T10:58:34.114Z,40.00
2022-09-10T11:01:35.049Z,31.40
2022-09-10T11:04:40.147Z,42.40
2022-09-10T11:07:42.129Z,44.20
2022-09-10T11:10:42.023Z,31.80
2022-09-10T11:14:03.345Z,32.00
2022-09-10T11:17:04.449Z,35.60
2022-09-10T11:20:29.666Z,32.80
2022-09-10T11:23:48.953Z,32.00
2022-09-10T11:26:49.705Z,29.80
2022-09-10T11:30:04.209Z,19.00
2022-09-10T11:33:19.314Z,24.40
2022-09-10T11:36:22.330Z,26.80
2022-09-10T11:39:24.343Z,30.00
2022-09-10T11:42:30.670Z,24.20
2022-09-10T11:45:39.693Z,25.20
2022-09-10T11:48:40.423Z,18.40
2022-09-10T11:51:37.876Z,16.40
2022-09-10T11:54:35.148Z,16.20
2022-09-10T11:57:53.719Z,15.80
2022-09-10T12:01:08.934Z,17.00
2022-09-10T12:04:24.858Z,21.80
2022-09-10T12:07:21.759Z,17.80
2022-09-10T12:10:43.787Z,16.80
2022-09-10T12:13:41.740Z,16.60
2022-09-10T12:17:01.042Z,21.00
2022-09-10T12:19:58.764Z,21.00
2022-09-10T12:22:55.994Z,18.60
2022-09-10T12:26:10.406Z,16.80
2022-09-10T12:29:33.222Z,18.60
2022-09-10T12:32:30.348Z,20.00
2022-09-10T12:35:30.453Z,17.60
2022-09-10T12:39:18.492Z,15.00
2022-09-10T12:42:29.089Z,20.40
2022-09-10T12:46:07.449Z,18.00
2022-09-10T12:49:06.784Z,17.00
2022-09-10T12:52:04.069Z,20.40
2022-09-10T12:55:22.888Z,15.00
2022-09-10T12:58:24.237Z,20.20
2022-09-10T13:01:29.785Z,16.40
2022-09-10T13:04:30.724Z,23.60
2022-09-10T13:07:34.324Z,19.40
2022-09-10T13:10:31.254Z,21.40
2022-09-10T13:13:51.035Z,17.00
2022-09-10T13:16:48.569Z,22.60
2022-09-10T13:19:45.751Z,22.80
2022-09-10T13:23:09.211Z,19.60
2022-09-10T13:26:39.980Z,20.60
2022-09-10T13:29:41.910Z,17.80
2022-09-10T13:32:41.919Z,18.80
2022-09-10T13:35:57.584Z,22.60
2022-09-10T13:39:08.364Z,18.00
2022-09-10T13:42:31.276Z,21.60
2022-09-10T13:45:41.778Z,25.40
2022-09-10T13:48:51.681Z,18.40
2022-09-10T13:51:59.234Z,22.40
2022-09-10T13:54:56.856Z,20.60
2022-09-10T13:58:17.466Z,18.80
2022-09-10T14:01:15.070Z,18.00
2022-09-10T14:04:43.023Z,19.60
2022-09-10T14:07:42.334Z,17.80
2022-09-10T14:11:44.131Z,17.40
2022-09-10T14:14:43.533Z,20.20
2022-09-10T14:17:43.146Z,19.20
2022-09-10T14:20:40.153Z,20.20
2022-09-10T14:23:40.340Z,18.60
2022-09-10T14:26:37.090Z,16.80
2022-09-10T14:29:34.199Z,19.20
2022-09-10T14:32:32.450Z,19.80
2022-09-10T14:35:39.513Z,19.00
2022-09-10T14:38:38.165Z,18.00
2022-09-10T14:41:34.905Z,16.80
2022-09-10T14:44:32.195Z,16.20
2022-09-10T14:47:35.874Z,15.60
2022-09-10T14:50:34.747Z,12.60
2022-09-10T14:53:32.179Z,21.20
2022-09-10T14:56:43.918Z,42.20
2022-09-10T14:59:42.565Z,13.20
2022-09-10T15:02:40.771Z,18.00
2022-09-10T15:05:39.534Z,18.60
2022-09-10T15:08:37.252Z,19.60
2022-09-10T15:11:34.881Z,20.40
2022-09-10T15:14:32.689Z,17.40
2022-09-10T15:17:30.247Z,22.40
2022-09-10T15:20:28.116Z,21.20
2022-09-10T15:23:25.247Z,16.60
2022-09-10T15:26:22.011Z,14.60
2022-09-10T15:29:19.171Z,23.60
2022-09-10T15:32:18.284Z,23.60
2022-09-10T15:35:15.115Z,16.00
2022-09-10T15:38:16.128Z,25.40
2022-09-10T15:41:13.976Z,20.60
2022-09-10T15:44:11.672Z,28.40
2022-09-10T15:47:10.112Z,30.40
2022-09-10T15:50:09.369Z,23.20
2022-09-10T15:53:10.425Z,24.40
2022-09-10T15:56:10.051Z,26.00
2022-09-10T15:59:08.668Z,21.00
2022-09-10T16:02:06.561Z,21.40
2022-09-10T16:05:05.316Z,20.40
2022-09-10T16:08:02.397Z,28.00
2022-09-10T16:10:59.509Z,20.40
2022-09-10T16:13:58.939Z,25.00
2022-09-10T16:16:58.808Z,24.60
2022-09-10T16:19:56.427Z,23.80
2022-09-10T16:22:53.790Z,23.20
2022-09-10T16:25:54.970Z,22.80
2022-09-10T16:28:53.892Z,23.00
2022-09-10T16:31:51.297Z,24.20
2022-09-10T16:34:48.301Z,29.60
2022-09-10T16:37:45.319Z,26.80
2022-09-10T16:40:42.560Z,25.80
2022-09-10T16:43:39.871Z,23.60
2022-09-10T16:46:38.378Z,24.40
2022-09-10T16:49:35.182Z,24.80
2022-09-10T16:52:34.169Z,24.80
2022-09-10T16:55:31.358Z,24.20
2022-09-10T16:58:31.882Z,21.40
2022-09-10T17:01:32.500Z,19.80
2022-09-10T17:04:29.606Z,21.00
2022-09-10T17:07:27.502Z,21.60
2022-09-10T17:10:27.041Z,19.00
2022-09-10T17:13:24.378Z,22.80
2022-09-10T17:16:21.279Z,23.00
2022-09-10T17:19:26.594Z,24.60
2022-09-10T17:22:24.416Z,28.60
2022-09-10T17:25:21.478Z,27.20
2022-09-10T17:28:18.205Z,26.80
2022-09-10T17:31:15.505Z,32.60
2022-09-10T17:34:13.204Z,28.40
2022-09-10T17:37:10.180Z,27.80
2022-09-10T17:40:08.032Z,28.00
2022-09-10T17:43:05.248Z,28.60
2022-09-10T17:46:06.243Z,27.80
2022-09-10T17:49:03.208Z,32.00
2022-09-10T17:52:00.456Z,28.20
2022-09-10T17:54:57.863Z,30.80
2022-09-10T17:57:55.305Z,31.80
2022-09-10T18:00:57.869Z,32.20
2022-09-10T18:03:55.295Z,32.60
2022-09-10T18:06:52.795Z,30.20
2022-09-10T18:09:50.300Z,32.20
2022-09-10T18:12:47.224Z,36.20
2022-09-10T18:15:46.440Z,34.40
2022-09-10T18:18:47.176Z,32.60
2022-09-10T18:21:45.639Z,34.40
2022-09-10T18:24:43.274Z,34.60
2022-09-10T18:27:41.660Z,33.80
2022-09-10T18:30:39.261Z,35.00
2022-09-10T18:33:38.440Z,33.80
2022-09-10T18:36:35.711Z,36.80
2022-09-10T18:39:33.708Z,32.00
2022-09-10T18:42:31.368Z,35.00
2022-09-10T18:45:28.282Z,31.80
2022-09-10T18:48:25.219Z,31.20
2022-09-10T18:51:23.108Z,34.00
2022-09-10T18:54:20.635Z,31.80
2022-09-10T18:57:17.626Z,32.00
2022-09-10T19:00:14.655Z,30.40
2022-09-10T19:03:11.462Z,30.60
2022-09-10T19:06:13.432Z,32.40
2022-09-10T19:09:12.180Z,29.80
2022-09-10T19:12:09.318Z,29.60
2022-09-10T19:15:07.305Z,27.80
2022-09-10T19:18:06.479Z,29.60
2022-09-10T19:21:05.507Z,23.00
2022-09-10T19:24:03.266Z,30.60
2022-09-10T19:27:00.540Z,31.60
2022-09-10T19:29:57.365Z,27.40
2022-09-10T19:32:54.753Z,31.20
2022-09-10T19:35:56.487Z,30.20
2022-09-10T19:38:55.278Z,27.40
2022-09-10T19:41:52.510Z,31.00
2022-09-10T19:44:49.525Z,32.20
2022-09-10T19:47:46.196Z,33.40
2022-09-10T19:50:43.492Z,28.20
2022-09-10T19:53:41.147Z,31.00
2022-09-10T19:56:41.235Z,30.40
2022-09-10T19:59:39.027Z,33.00
2022-09-10T20:02:36.447Z,29.40
2022-09-10T20:05:36.505Z,30.00
2022-09-10T20:08:36.540Z,28.80
2022-09-10T20:11:35.154Z,28.00
2022-09-10T20:14:32.858Z,28.20
2022-09-10T20:17:30.620Z,29.60
2022-09-10T20:20:29.108Z,32.60
2022-09-10T20:23:26.554Z,32.60
2022-09-10T20:26:24.440Z,32.80
2022-09-10T20:29:23.160Z,38.40
2022-09-10T20:32:20.453Z,35.40
2022-09-10T20:35:17.394Z,35.40
2022-09-10T20:38:14.633Z,30.80
2022-09-10T20:41:15.957Z,33.00
2022-09-10T20:44:15.729Z,32.60
2022-09-10T20:47:13.194Z,35.00
2022-09-10T20:50:11.746Z,29.20
2022-09-10T20:53:08.327Z,31.60
2022-09-10T20:56:07.058Z,34.40
2022-09-10T20:59:04.667Z,33.00
2022-09-10T21:02:01.551Z,34.60
2022-09-10T21:04:58.496Z,33.00
2022-09-10T21:07:56.060Z,28.00
2022-09-10T21:10:53.610Z,33.60
2022-09-10T21:13:54.034Z,33.00
2022-09-10T21:16:51.568Z,36.20
2022-09-10T21:19:48.048Z,25.00
2022-09-10T21:22:45.473Z,35.20
2022-09-10T21:25:51.379Z,33.00
2022-09-10T21:28:48.476Z,35.20
2022-09-10T21:31:45.666Z,34.20
2022-09-10T21:34:42.900Z,36.60
2022-09-10T21:37:40.621Z,34.80
2022-09-10T21:40:38.810Z,34.20
2022-09-10T21:43:36.636Z,35.00
2022-09-10T21:46:34.556Z,34.00
2022-09-10T21:49:31.667Z,34.40
2022-09-10T21:52:28.807Z,34.40
2022-09-10T21:55:28.123Z,34.40
2022-09-10T21:58:29.364Z,28.60
2022-09-10T22:01:28.260Z,34.60
2022-09-10T22:04:25.453Z,36.40
2022-09-10T22:07:22.792Z,32.00
2022-09-10T22:10:20.039Z,34.60
2022-09-10T22:13:17.852Z,34.60
2022-09-10T22:16:15.947Z,33.00
2022-09-10T22:19:15.275Z,38.60
2022-09-10T22:22:12.596Z,37.80
2022-09-10T22:25:09.792Z,31.60
2022-09-10T22:28:06.722Z,33.60
2022-09-10T22:31:15.387Z,33.00
2022-09-10T22:34:14.099Z,35.80
2022-09-10T22:37:11.691Z,35.00
2022-09-10T22:40:09.520Z,35.60
2022-09-10T22:43:06.526Z,35.60
2022-09-10T22:46:06.836Z,33.40
2022-09-10T22:49:05.192Z,35.40
2022-09-10T22:52:02.878Z,33.20
2022-09-10T22:54:59.940Z,33.60
2022-09-10T22:57:57.794Z,35.40
2022-09-10T23:00:54.647Z,38.20
2022-09-10T23:03:52.896Z,33.80
2022-09-10T23:06:50.382Z,35.40
2022-09-10T23:09:48.215Z,34.60
2022-09-10T23:12:45.568Z,36.00
2022-09-10T23:15:43.074Z,37.20
2022-09-10T23:18:41.380Z,31.60
2022-09-10T23:21:40.919Z,35.20
2022-09-10T23:24:37.361Z,33.20
2022-09-10T23:27:35.304Z,34.80
2022-09-10T23:30:33.501Z,33.20
2022-09-10T23:33:30.918Z,36.00
2022-09-10T23:36:33.025Z,37.60
2022-09-10T23:39:30.370Z,37.60
2022-09-10T23:42:27.917Z,35.00
2022-09-10T23:45:25.014Z,36.60
2022-09-10T23:48:24.001Z,39.60
2022-09-10T23:51:22.838Z,37.60
2022-09-10T23:54:19.394Z,40.20
2022-09-10T23:57:17.486Z,39.60
